createdAt,value
2022-10-19T00:02:24.743Z,38.28
2022-10-19T00:12:31.710Z,45.20
2022-10-19T00:22:42.038Z,47.65
2022-10-19T00:32:49.140Z,52.63
2022-10-19T00:42:59.989Z,52.38
2022-10-19T00:53:07.204Z,50.87
2022-10-19T01:03:16.963Z,41.63
2022-10-19T01:13:35.986Z,37.47
2022-10-19T01:24:14.017Z,36.88
2022-10-19T01:34:29.262Z,33.38
2022-10-19T01:44:42.867Z,32.30
2022-10-19T01:54:58.330Z,32.05
2022-10-19T02:05:07.854Z,29.77
2022-10-19T02:15:20.152Z,33.83
2022-10-19T02:25:28.114Z,36.90
2022-10-19T02:35:40.414Z,36.17
2022-10-19T02:45:54.251Z,36.33
2022-10-19T02:56:03.300Z,41.60
2022-10-19T03:06:10.318Z,44.88
2022-10-19T03:16:18.895Z,52.25
2022-10-19T03:26:26.033Z,58.90
2022-10-19T03:36:36.038Z,66.65
2022-10-19T03:46:43.398Z,60.70
2022-10-19T03:56:52.117Z,70.28
2022-10-19T04:06:59.131Z,86.78
2022-10-19T04:17:20.785Z,81.38
2022-10-19T04:27:39.528Z,76.07
2022-10-19T04:37:48.333Z,73.40
2022-10-19T04:48:21.019Z,76.00
2022-10-19T04:58:30.712Z,71.18
2022-10-19T05:08:38.396Z,70.25
2022-10-19T05:18:51.657Z,71.75
2022-10-19T05:29:02.538Z,64.63
2022-10-19T05:39:14.905Z,68.95
2022-10-19T05:49:24.327Z,70.22
2022-10-19T05:59:33.098Z,62.92
2022-10-19T06:09:46.875Z,58.83
2022-10-19T06:19:56.086Z,59.25
2022-10-19T06:30:04.645Z,58.92
2022-10-19T06:40:14.198Z,53.55
2022-10-19T06:50:21.700Z,53.70
2022-10-19T07:00:34.145Z,58.97
2022-10-19T07:10:41.305Z,52.30
2022-10-19T07:20:57.846Z,50.75
2022-10-19T07:31:15.477Z,49.20
2022-10-19T07:41:25.848Z,50.03
2022-10-19T07:51:33.085Z,51.28
2022-10-19T08:01:46.889Z,51.10
2022-10-19T08:12:15.415Z,51.55
2022-10-19T08:22:30.136Z,51.15
2022-10-19T08:33:37.529Z,54.08
2022-10-19T08:43:59.034Z,48.38
2022-10-19T08:54:13.139Z,55.40
2022-10-19T09:04:28.585Z,47.88
2022-10-19T09:14:43.594Z,46.22
2022-10-19T09:24:55.125Z,45.22
2022-10-19T09:35:05.072Z,44.60
2022-10-19T09:46:09.521Z,44.58
2022-10-19T09:56:25.685Z,44.20
2022-10-19T10:06:34.386Z,43.00
2022-10-19T10:16:41.736Z,45.65
2022-10-19T10:26:52.033Z,42.33
2022-10-19T10:36:59.504Z,40.17
2022-10-19T10:58:48.696Z,39.47
2022-10-19T11:09:09.225Z,37.47
2022-10-19T11:19:24.373Z,38.45
2022-10-19T11:29:51.629Z,38.08
2022-10-19T11:40:11.534Z,35.50
2022-10-19T11:50:32.549Z,38.05
2022-10-19T12:00:45.361Z,36.95
2022-10-19T12:11:27.197Z,36.22
2022-10-19T12:21:37.250Z,32.33
2022-10-19T12:31:47.007Z,33.40
2022-10-19T12:42:25.855Z,33.03
2022-10-19T12:52:43.882Z,33.22
2022-10-19T13:02:59.692Z,31.40
2022-10-19T13:13:08.648Z,30.00
2022-10-19T13:23:40.923Z,33.72
2022-10-19T13:33:58.026Z,31.70
2022-10-19T13:44:19.246Z,34.15
2022-10-19T13:54:40.361Z,40.03
2022-10-19T14:05:10.404Z,35.60
2022-10-19T14:15:29.017Z,36.85
2022-10-19T14:25:36.311Z,33.70
2022-10-19T14:35:51.728Z,30.92
2022-10-19T14:46:17.357Z,31.33
2022-10-19T14:56:29.994Z,29.42
2022-10-19T15:06:43.451Z,31.73
2022-10-19T15:16:55.658Z,30.38
2022-10-19T15:27:16.061Z,27.65
2022-10-19T15:47:38.673Z,29.55
2022-10-19T15:57:47.347Z,28.40
2022-10-19T16:07:54.189Z,27.40
2022-10-19T16:18:03.975Z,31.85
2022-10-19T16:28:11.316Z,28.42
2022-10-19T16:38:20.465Z,27.33
2022-10-19T16:48:27.757Z,27.25
2022-10-19T16:58:37.382Z,35.75
2022-10-19T17:09:14.718Z,35.22
2022-10-19T17:19:14.443Z,33.25
2022-10-19T17:29:22.981Z,37.53
2022-10-19T17:39:32.153Z,34.13
2022-10-19T17:49:40.083Z,39.10
2022-10-19T17:59:52.922Z,34.72
2022-10-19T18:10:00.250Z,32.35
2022-10-19T18:20:10.141Z,36.45
2022-10-19T18:30:17.216Z,35.15
2022-10-19T18:40:26.815Z,45.78
2022-10-19T18:50:33.915Z,72.38
2022-10-19T19:00:45.714Z,68.40
2022-10-19T19:10:56.717Z,74.65
2022-10-19T19:21:18.437Z,71.57
2022-10-19T19:31:29.424Z,67.10
2022-10-19T19:41:43.493Z,55.33
2022-10-19T19:51:54.437Z,50.63
2022-10-19T20:02:07.665Z,44.83
2022-10-19T20:12:18.833Z,39.17
2022-10-19T20:22:31.412Z,40.45
2022-10-19T20:32:42.133Z,35.50
2022-10-19T20:42:57.895Z,34.20
2022-10-19T20:53:07.181Z,33.35
2022-10-19T21:03:23.367Z,34.65
2022-10-19T21:13:34.123Z,29.52
2022-10-19T21:23:45.543Z,26.25
2022-10-19T21:33:55.682Z,22.77
2022-10-19T21:44:08.126Z,19.75
2022-10-19T21:54:18.812Z,16.52
2022-10-19T22:04:33.220Z,14.77
2022-10-19T22:14:48.758Z,11.48
2022-10-19T22:25:02.258Z,10.45
2022-10-19T22:35:15.985Z,9.95
2022-10-19T22:45:25.967Z,10.40
2022-10-19T22:55:35.134Z,11.20
2022-10-19T23:05:43.812Z,9.98
2022-10-19T23:15:51.966Z,9.85
2022-10-19T23:26:06.458Z,9.63
2022-10-19T23:36:17.233Z,10.38
2022-10-19T23:46:32.819Z,10.02
2022-10-19T23:56:43.750Z,10.10
